Time;durP1;ratioP1;P1;durP2;ratioP2;P2;SDS_P1;SDS_P2;PMS_P1;PMS_P2;Temp;Humidity;BMP_temperature;BMP_pressure;BME280_temperature;BME280_humidity;BME280_pressure;Samples;Min_cycle;Max_cycle;Signal;HPM_P1;HPM_P2
2021/11/06 00:01:05;;;;;;;8.35;4.90;;;;;;;12.04;77.34;99542.66;5036596;28;20099;-78
2021/11/06 00:03:31;;;;;;;8.02;5.15;;;;;;;11.82;77.37;99504.78;5046490;28;20044;-79
2021/11/06 00:05:57;;;;;;;10.45;5.80;;;;;;;12.32;77.33;99575.19;5040109;28;20360;-78
2021/11/06 00:08:23;;;;;;;7.85;5.68;;;;;;;12.18;77.32;99559.81;5058178;28;20546;-80
2021/11/06 00:10:48;;;;;;;7.72;5.55;;;;;;;12.11;77.22;99553.84;5045533;28;20072;-79
2021/11/06 00:13:14;;;;;;;9.65;5.63;;;;;;;12.08;77.47;99534.78;5053868;28;20033;-79
2021/11/06 00:15:40;;;;;;;8.88;5.22;;;;;;;12.20;77.17;99568.47;5039129;28;20049;-79
2021/11/06 00:18:06;;;;;;;9.32;5.47;;;;;;;12.26;77.39;99578.75;5058385;28;20447;-79
2021/11/06 00:20:37;;;;;;;9.90;5.35;;;;;;;12.14;77.54;99572.03;5043748;28;20099;-77
2021/11/06 00:23:03;;;;;;;7.97;5.30;;;;;;;12.22;77.26;99584.94;5067896;28;20037;-77
2021/11/06 00:25:29;;;;;;;8.52;6.00;;;;;;;12.19;77.36;99598.03;5071806;28;20037;-80
2021/11/06 00:27:55;;;;;;;8.35;5.68;;;;;;;11.96;77.53;99539.31;5079879;28;20069;-80
2021/11/06 00:30:23;;;;;;;9.10;5.82;;;;;;;12.11;77.17;99569.50;5049006;28;20040;-78
2021/11/06 00:32:49;;;;;;;9.15;6.03;;;;;;;12.16;77.14;99579.84;5023194;28;20479;-78
2021/11/06 00:35:24;;;;;;;8.52;5.40;;;;;;;11.70;77.21;99498.94;5047712;28;20049;-79
2021/11/06 00:37:50;;;;;;;9.73;5.80;;;;;;;12.07;77.30;99562.63;5045751;28;20160;-80
2021/11/06 00:40:17;;;;;;;7.78;5.47;;;;;;;11.86;77.31;99530.81;5056926;28;20127;-78
2021/11/06 00:42:43;;;;;;;8.70;5.75;;;;;;;12.15;77.08;99573.75;5059582;28;20041;-79
2021/11/06 00:45:09;;;;;;;9.05;5.65;;;;;;;12.14;77.20;99581.59;5060453;28;20044;-77
2021/11/06 00:47:36;;;;;;;8.10;5.72;;;;;;;11.99;77.09;99549.72;5044996;28;20033;-81
2021/11/06 00:50:03;;;;;;;13.93;6.00;;;;;;;11.99;76.96;99541.91;5046899;28;20149;-82
2021/11/06 00:52:29;;;;;;;9.65;5.72;;;;;;;12.11;76.84;99561.66;5047138;28;20411;-77
2021/11/06 00:54:54;;;;;;;9.43;5.40;;;;;;;12.03;76.99;99564.41;5023085;28;20052;-80
2021/11/06 00:57:22;;;;;;;11.55;5.35;;;;;;;12.11;77.03;99560.78;5059945;28;20048;-79
2021/11/06 00:59:48;;;;;;;8.60;5.68;;;;;;;12.01;76.79;99554.91;5055786;28;20125;-77
2021/11/06 01:02:14;;;;;;;10.80;5.72;;;;;;;12.04;76.80;99573.09;5026620;28;20049;-75
2021/11/06 01:04:40;;;;;;;9.93;6.10;;;;;;;12.03;76.79;99577.44;5048379;28;20049;-81
2021/11/06 01:07:06;;;;;;;8.00;5.60;;;;;;;12.00;76.57;99572.31;5043616;28;20043;-79
2021/11/06 01:09:32;;;;;;;8.05;5.40;;;;;;;11.92;76.71;99565.47;5053736;28;20036;-77
2021/11/06 01:11:58;;;;;;;10.70;6.00;;;;;;;11.69;76.57;99530.25;5045578;28;20045;-78
2021/11/06 01:14:23;;;;;;;10.75;5.55;;;;;;;11.92;76.69;99571.53;5055648;28;20037;-78
2021/11/06 01:16:49;;;;;;;10.35;6.32;;;;;;;11.90;76.60;99562.88;5060270;28;20475;-80
2021/11/06 01:19:15;;;;;;;10.18;5.65;;;;;;;11.77;75.89;99530.13;5033162;28;20040;-79
2021/11/06 01:21:42;;;;;;;9.63;6.20;;;;;;;11.89;76.20;99566.38;5044459;28;20599;-78
2021/11/06 01:24:08;;;;;;;9.93;6.13;;;;;;;11.87;76.42;99561.19;5046424;28;20041;-78
2021/11/06 01:26:34;;;;;;;11.18;6.30;;;;;;;11.56;75.90;99507.00;5044959;28;20040;-80
2021/11/06 01:29:00;;;;;;;9.38;5.82;;;;;;;11.82;76.10;99557.81;5025269;28;20061;-80
2021/11/06 01:31:27;;;;;;;10.25;6.55;;;;;;;11.80;75.67;99571.78;5062283;28;20422;-79
2021/11/06 01:33:53;;;;;;;10.10;6.05;;;;;;;11.79;75.58;99576.09;5052068;28;20048;-79
2021/11/06 01:36:19;;;;;;;9.23;5.97;;;;;;;11.70;75.79;99552.78;5053292;28;20386;-78
2021/11/06 01:38:45;;;;;;;10.20;6.07;;;;;;;11.80;75.42;99566.56;5053647;28;20056;-81
2021/11/06 01:41:12;;;;;;;10.68;6.32;;;;;;;11.66;75.52;99543.34;5060764;28;20095;-78
2021/11/06 01:43:39;;;;;;;12.25;6.18;;;;;;;11.70;75.19;99551.06;5039441;28;20118;-78
2021/11/06 01:46:07;;;;;;;8.98;5.95;;;;;;;11.74;75.33;99568.38;5045684;28;20488;-80
2021/11/06 01:48:33;;;;;;;10.48;6.50;;;;;;;11.64;74.94;99551.16;5039152;28;20052;-80
2021/11/06 01:51:01;;;;;;;8.68;5.93;;;;;;;11.58;74.89;99541.72;5048201;28;20047;-80
2021/11/06 01:53:27;;;;;;;11.43;6.30;;;;;;;11.64;74.95;99550.31;5043449;28;20120;-78
2021/11/06 01:55:58;;;;;;;9.25;6.43;;;;;;;11.55;74.61;99559.16;5045419;28;20087;-81
2021/11/06 01:58:25;;;;;;;10.85;6.75;;;;;;;11.50;74.86;99547.94;5059714;28;20045;-79
2021/11/06 02:00:51;;;;;;;9.90;6.35;;;;;;;11.33;74.47;99525.63;5041738;28;20041;-78
2021/11/06 02:03:18;;;;;;;11.98;6.70;;;;;;;11.44;74.49;99552.38;5045203;28;20049;-80
2021/11/06 02:05:44;;;;;;;10.40;6.32;;;;;;;11.37;74.47;99552.50;5043984;28;20037;-78
2021/11/06 02:08:17;;;;;;;10.77;6.60;;;;;;;11.36;74.53;99562.06;5018171;28;20064;-79
2021/11/06 02:10:45;;;;;;;9.40;6.22;;;;;;;11.29;74.29;99566.50;5043433;28;20114;-79
2021/11/06 02:13:11;;;;;;;10.38;6.03;;;;;;;11.24;74.23;99557.91;5059166;28;20045;-79
2021/11/06 02:15:37;;;;;;;11.40;6.97;;;;;;;11.29;74.30;99565.66;5060346;28;20519;-77
2021/11/06 02:18:04;;;;;;;10.10;6.22;;;;;;;11.20;73.73;99552.75;5042981;28;20037;-76
2021/11/06 02:20:30;;;;;;;10.18;6.22;;;;;;;11.20;73.81;99560.56;5044459;28;20033;-77
2021/11/06 02:22:56;;;;;;;9.80;6.22;;;;;;;11.17;74.25;99571.91;5055889;28;20072;-79
2021/11/06 02:25:22;;;;;;;11.73;5.93;;;;;;;11.07;74.22;99552.94;5042961;28;20069;-77
2021/11/06 02:27:49;;;;;;;9.95;6.43;;;;;;;11.13;74.07;99562.41;5036125;28;21463;-77
2021/11/06 02:30:16;;;;;;;11.30;6.50;;;;;;;11.04;73.92;99555.59;5030316;28;20041;-78
2021/11/06 02:32:46;;;;;;;9.40;6.30;;;;;;;11.13;74.03;99565.00;5007672;28;20061;-78
2021/11/06 02:35:13;;;;;;;10.13;6.28;;;;;;;11.10;73.95;99554.63;5016173;28;20536;-76
2021/11/06 02:37:39;;;;;;;11.45;6.47;;;;;;;10.95;73.55;99530.56;5043086;28;20096;-77
2021/11/06 02:40:06;;;;;;;11.82;6.30;;;;;;;11.05;73.31;99551.22;5042588;28;20508;-78
2021/11/06 02:42:33;;;;;;;9.48;6.18;;;;;;;10.99;73.45;99541.78;5051133;28;20621;-76
2021/11/06 02:45:02;;;;;;;9.10;6.20;;;;;;;10.78;73.54;99516.94;5052729;28;20041;-77
2021/11/06 02:47:30;;;;;;;9.70;6.00;;;;;;;10.83;73.19;99530.72;5042874;28;20076;-78
2021/11/06 02:49:57;;;;;;;12.30;6.28;;;;;;;10.61;73.08;99497.19;5038686;28;20769;-78
2021/11/06 02:52:23;;;;;;;10.25;6.25;;;;;;;10.74;73.37;99528.25;5041368;28;20048;-79
2021/11/06 02:54:49;;;;;;;12.55;6.72;;;;;;;10.49;73.17;99492.16;5028905;28;20045;-78
2021/11/06 02:57:15;;;;;;;10.38;5.95;;;;;;;10.65;73.14;99521.44;5041646;28;20045;-78
2021/11/06 02:59:41;;;;;;;9.60;6.10;;;;;;;10.77;73.07;99543.84;5038735;28;21045;-79
2021/11/06 03:02:07;;;;;;;9.93;6.15;;;;;;;10.74;72.92;99552.53;5043067;28;20041;-78
2021/11/06 03:04:36;;;;;;;9.38;6.18;;;;;;;10.70;72.81;99561.28;5041714;28;20113;-80
2021/11/06 03:07:06;;;;;;;11.00;6.40;;;;;;;10.66;72.62;99562.19;4988916;28;20140;-77
2021/11/06 03:09:38;;;;;;;10.57;6.07;;;;;;;10.42;73.17;99539.94;5026948;28;20141;-80
2021/11/06 03:12:04;;;;;;;;;;;;;;;10.59;73.02;99565.75;5013266;28;20131;-77
2021/11/06 03:14:32;;;;;;;10.38;6.32;;;;;;;10.50;73.26;99564.97;5021345;28;20008;-78
2021/11/06 03:16:58;;;;;;;9.45;5.97;;;;;;;10.57;72.59;99564.91;5010888;28;20040;-77
2021/11/06 03:19:24;;;;;;;9.05;5.90;;;;;;;10.54;72.83;99556.25;5040669;28;20913;-79
2021/11/06 03:21:49;;;;;;;10.70;6.13;;;;;;;10.41;72.68;99531.28;5028348;28;20135;-79
2021/11/06 03:24:15;;;;;;;10.18;5.93;;;;;;;10.52;72.36;99550.22;5042499;28;20098;-79
2021/11/06 03:27:13;;;;;;;8.50;6.03;;;;;;;10.52;73.02;99547.59;4995033;28;20050;-78
2021/11/06 03:29:39;;;;;;;13.15;6.97;;;;;;;10.50;73.14;99543.31;5046020;28;20057;-80
2021/11/06 03:32:07;;;;;;;10.57;6.55;;;;;;;10.53;72.43;99558.88;5028541;28;20043;-78
2021/11/06 03:34:33;;;;;;;12.00;6.25;;;;;;;10.40;72.56;99553.81;5058739;28;20040;-79
2021/11/06 03:36:59;;;;;;;12.20;6.80;;;;;;;10.42;72.49;99546.00;5056981;28;20085;-78
2021/11/06 03:39:25;;;;;;;8.40;4.65;;;;;;;10.45;72.57;99555.50;5053914;28;20037;-78
2021/11/06 03:41:51;;;;;;;11.15;4.75;;;;;;;10.18;72.21;99523.72;5029161;28;20059;-80
2021/11/06 03:44:17;;;;;;;7.75;4.63;;;;;;;10.30;72.44;99566.91;5058236;28;20049;-78
2021/11/06 03:46:43;;;;;;;7.72;4.47;;;;;;;10.35;72.29;99578.13;5028109;28;20032;-79
2021/11/06 03:49:08;;;;;;;7.63;4.18;;;;;;;10.24;71.30;99550.53;5048343;28;20101;-79
2021/11/06 03:51:34;;;;;;;7.90;4.03;;;;;;;10.32;71.23;99583.38;5054360;28;20045;-78
2021/11/06 03:54:00;;;;;;;6.80;4.07;;;;;;;10.12;70.61;99561.06;5046101;28;20063;-78
2021/11/06 03:56:26;;;;;;;5.35;3.67;;;;;;;10.13;70.27;99570.56;5059665;28;20045;-77
2021/11/06 03:58:52;;;;;;;5.95;4.22;;;;;;;10.05;70.58;99573.25;5054203;28;20869;-78
2021/11/06 04:01:18;;;;;;;4.10;3.08;;;;;;;9.86;70.02;99556.13;5041807;28;20099;-78
2021/11/06 04:03:44;;;;;;;6.35;3.50;;;;;;;9.86;69.61;99566.53;5044281;28;20044;-79
2021/11/06 04:06:10;;;;;;;4.63;3.33;;;;;;;9.58;69.68;99541.66;5034659;28;20041;-78
2021/11/06 04:08:36;;;;;;;6.10;3.03;;;;;;;9.72;69.54;99579.66;5053565;28;20041;-79
2021/11/06 04:11:03;;;;;;;4.43;3.28;;;;;;;9.67;69.11;99576.22;5042146;28;20049;-77
2021/11/06 04:13:29;;;;;;;4.13;2.70;;;;;;;9.63;68.94;99586.63;5038088;28;20118;-78
2021/11/06 04:15:55;;;;;;;3.47;2.80;;;;;;;9.34;68.78;99537.53;5043419;28;20128;-76
2021/11/06 04:18:21;;;;;;;4.10;3.17;;;;;;;9.50;68.22;99585.88;5037599;28;20127;-77
2021/11/06 04:20:47;;;;;;;3.65;2.67;;;;;;;9.25;68.10;99535.88;5036255;28;20110;-76
2021/11/06 04:23:13;;;;;;;5.50;2.85;;;;;;;9.43;67.87;99559.97;5053156;28;20048;-79
2021/11/06 04:25:39;;;;;;;3.78;2.70;;;;;;;9.37;67.15;99567.81;5050033;28;20075;-77
2021/11/06 04:28:05;;;;;;;5.57;2.58;;;;;;;9.36;67.38;99576.47;5041715;28;20045;-78
2021/11/06 04:30:31;;;;;;;7.90;3.00;;;;;;;9.24;67.22;99567.91;5048274;28;20042;-78
2021/11/06 04:32:57;;;;;;;4.32;3.20;;;;;;;9.29;67.34;99580.84;5022877;28;20046;-77
2021/11/06 04:35:23;;;;;;;8.13;2.65;;;;;;;9.24;67.41;99582.63;5057908;28;20041;-79
2021/11/06 04:37:49;;;;;;;6.15;2.58;;;;;;;9.18;67.14;99563.63;5043469;28;20055;-78
2021/11/06 04:40:15;;;;;;;7.30;2.60;;;;;;;9.15;66.81;99566.22;5043355;28;20033;-78
2021/11/06 04:42:42;;;;;;;4.10;2.42;;;;;;;9.14;66.81;99574.03;5046148;28;20037;-77
2021/11/06 04:45:10;;;;;;;5.07;2.42;;;;;;;9.15;66.44;99576.63;5045791;28;20048;-78
2021/11/06 04:47:35;;;;;;;3.83;2.75;;;;;;;9.08;66.76;99579.25;5046044;28;20037;-77
2021/11/06 04:50:02;;;;;;;4.40;2.35;;;;;;;9.08;66.38;99584.44;5042434;28;20052;-79
2021/11/06 04:52:30;;;;;;;5.30;2.65;;;;;;;9.01;66.56;99575.84;5039911;28;21988;-78
2021/11/06 04:54:56;;;;;;;4.35;2.45;;;;;;;8.90;66.18;99560.34;5010170;28;20059;-77
2021/11/06 04:57:22;;;;;;;4.43;3.17;;;;;;;8.96;66.46;99577.59;5045626;28;20044;-78
2021/11/06 04:59:48;;;;;;;3.97;3.00;;;;;;;8.88;66.37;99585.44;5061542;28;20048;-77
2021/11/06 05:02:15;;;;;;;4.10;2.80;;;;;;;8.58;66.49;99535.41;5047817;28;20086;-78
2021/11/06 05:04:41;;;;;;;4.60;3.20;;;;;;;8.81;66.20;99586.31;5051651;28;20044;-78
2021/11/06 05:07:07;;;;;;;5.65;2.83;;;;;;;8.73;65.98;99558.69;5044880;28;20032;-78
2021/11/06 05:09:33;;;;;;;3.30;2.58;;;;;;;8.73;66.05;99550.91;5024886;28;20044;-78
2021/11/06 05:11:59;;;;;;;3.97;2.53;;;;;;;8.56;66.31;99531.97;5048907;28;20037;-77
2021/11/06 05:14:24;;;;;;;5.03;2.63;;;;;;;8.79;66.11;99573.38;5044465;28;20048;-77
2021/11/06 05:16:50;;;;;;;5.85;2.75;;;;;;;8.78;66.26;99557.78;5060221;28;20060;-78
2021/11/06 05:19:17;;;;;;;9.27;2.60;;;;;;;8.70;66.28;99543.16;5049481;28;20092;-77
2021/11/06 05:21:44;;;;;;;3.60;2.25;;;;;;;8.79;66.57;99555.22;5064382;28;20040;-79
2021/11/06 05:24:10;;;;;;;5.38;3.00;;;;;;;8.81;66.08;99557.78;5055062;28;20044;-77
2021/11/06 05:26:38;;;;;;;4.28;2.40;;;;;;;8.77;65.76;99553.47;5023366;28;20135;-79
2021/11/06 05:29:08;;;;;;;5.55;2.63;;;;;;;8.81;66.09;99573.34;5039438;28;20110;-77
2021/11/06 05:31:36;;;;;;;4.63;2.38;;;;;;;8.71;66.05;99552.66;5051812;28;20113;-78
2021/11/06 05:34:04;;;;;;;4.07;2.38;;;;;;;8.80;66.18;99545.69;5051273;28;20511;-79
2021/11/06 05:36:30;;;;;;;4.68;2.70;;;;;;;8.83;66.05;99543.91;5048367;28;20045;-78
2021/11/06 05:38:56;;;;;;;4.35;2.70;;;;;;;8.81;66.19;99542.22;5044897;28;20159;-77
2021/11/06 05:41:23;;;;;;;4.47;2.90;;;;;;;8.84;66.16;99537.88;5043525;28;20084;-77
2021/11/06 05:43:48;;;;;;;3.40;2.22;;;;;;;8.84;65.99;99545.66;5045039;28;20061;-78
2021/11/06 05:46:18;;;;;;;6.57;2.83;;;;;;;8.74;65.77;99539.66;5045205;28;20036;-80
2021/11/06 05:48:43;;;;;;;4.30;2.72;;;;;;;8.78;65.89;99555.19;5031964;28;20045;-77
2021/11/06 05:51:09;;;;;;;4.32;3.10;;;;;;;8.84;66.16;99547.38;5045206;28;20483;-80
2021/11/06 05:53:35;;;;;;;3.50;2.88;;;;;;;8.72;66.13;99515.44;5062025;28;20135;-79
2021/11/06 05:56:01;;;;;;;6.93;3.20;;;;;;;8.88;66.05;99538.72;5059479;28;20098;-77
2021/11/06 05:58:27;;;;;;;6.03;3.20;;;;;;;8.98;65.86;99534.34;5042322;28;20511;-78
2021/11/06 06:00:53;;;;;;;4.68;2.80;;;;;;;9.09;65.69;99542.91;5043007;28;20108;-78
2021/11/06 06:03:20;;;;;;;6.75;2.60;;;;;;;8.95;65.60;99518.78;5011284;28;20049;-81
2021/11/06 06:05:48;;;;;;;5.38;3.05;;;;;;;8.87;65.42;99506.72;5031106;28;20094;-76
2021/11/06 06:08:14;;;;;;;4.65;2.70;;;;;;;9.04;65.46;99560.25;5046090;28;20033;-79
2021/11/06 06:10:40;;;;;;;5.95;3.00;;;;;;;9.01;65.42;99563.72;5049490;28;20042;-78
2021/11/06 06:13:06;;;;;;;4.22;2.72;;;;;;;9.04;65.84;99574.09;5057487;28;20090;-78
2021/11/06 06:15:32;;;;;;;4.63;2.70;;;;;;;9.00;65.33;99581.91;5058516;28;20048;-79
2021/11/06 06:17:58;;;;;;;4.43;3.13;;;;;;;8.88;65.16;99569.88;5060056;28;20049;-79
2021/11/06 06:20:23;;;;;;;3.42;2.38;;;;;;;8.87;65.37;99571.59;5044853;28;20044;-79
2021/11/06 06:22:58;;;;;;;4.03;2.80;;;;;;;8.92;65.60;99581.97;5036105;28;20471;-79
2021/11/06 06:25:24;;;;;;;4.43;2.70;;;;;;;8.69;65.28;99533.66;5030529;28;20040;-78
2021/11/06 06:27:54;;;;;;;4.75;2.55;;;;;;;8.96;65.26;99552.50;5051762;28;20140;-79
2021/11/06 06:30:21;;;;;;;3.65;2.58;;;;;;;8.86;65.00;99546.50;5041067;28;20041;-79
2021/11/06 06:32:50;;;;;;;4.05;2.30;;;;;;;8.90;65.45;99526.59;5053257;28;20727;-77
2021/11/06 06:35:21;;;;;;;;;;;;;;;8.92;65.51;99535.25;5053707;28;20045;-78
2021/11/06 06:37:47;;;;;;;5.03;2.33;;;;;;;8.54;65.24;99463.69;5047429;28;19920;-80
2021/11/06 06:40:13;;;;;;;4.45;2.60;;;;;;;8.94;65.16;99511.88;5061726;28;20033;-79
2021/11/06 06:42:43;;;;;;;4.90;2.70;;;;;;;8.97;65.02;99519.63;5058295;28;20063;-80
2021/11/06 06:45:23;;;;;;;5.95;2.72;;;;;;;8.99;65.21;99525.69;5033263;28;20095;-77
2021/11/06 06:47:57;;;;;;;6.35;2.92;;;;;;;8.66;64.83;99476.59;5042656;28;20119;-78
2021/11/06 06:50:38;;;;;;;8.63;2.85;;;;;;;7.97;65.28;99363.75;5047017;28;20123;-80
2021/11/06 06:53:06;;;;;;;9.52;3.30;;;;;;;7.95;65.40;99388.78;5039567;28;20492;-81
2021/11/06 06:55:40;;;;;;;5.13;3.00;;;;;;;8.91;65.15;99528.34;5055246;28;20054;-78
2021/11/06 06:58:09;;;;;;;4.63;2.67;;;;;;;7.98;65.08;99370.66;5062094;28;20531;-80
2021/11/06 07:01:08;;;;;;;5.25;2.60;;;;;;;8.91;65.30;99553.41;5019792;28;20577;-81
2021/11/06 07:03:37;;;;;;;4.65;2.58;;;;;;;8.93;65.03;99557.72;5048707;28;20045;-80
2021/11/06 07:06:06;;;;;;;6.25;2.92;;;;;;;8.73;65.27;99535.31;5038540;28;20045;-80
2021/11/06 07:08:42;;;;;;;8.77;2.53;;;;;;;8.10;64.83;99429.31;5045521;28;20043;-80
2021/11/06 07:11:17;;;;;;;7.25;2.75;;;;;;;7.80;64.89;99389.72;5043331;28;20032;-81
2021/11/06 07:13:51;;;;;;;4.88;2.40;;;;;;;8.88;64.96;99549.09;5049113;28;20041;-79
2021/11/06 07:16:34;;;;;;;9.13;2.67;;;;;;;7.66;65.29;99366.47;5044391;28;20033;-81
2021/11/06 07:19:00;;;;;;;4.63;2.67;;;;;;;8.92;65.13;99555.13;5041356;28;20045;-83
2021/11/06 07:21:28;;;;;;;6.30;2.95;;;;;;;8.70;65.05;99511.16;5049003;28;20095;-82
2021/11/06 07:23:54;;;;;;;8.18;2.90;;;;;;;8.29;64.89;99464.66;5045762;28;20453;-81
2021/11/06 07:26:23;;;;;;;8.27;3.10;;;;;;;8.97;65.01;99569.78;5054870;28;20071;-79
2021/11/06 07:28:49;;;;;;;4.68;2.50;;;;;;;8.75;65.12;99537.94;5060367;28;20057;-80
2021/11/06 07:31:15;;;;;;;4.35;2.60;;;;;;;8.84;64.64;99539.59;5043643;28;20043;-79
2021/11/06 07:34:24;;;;;;;;;;;;;;;;;;;;;
2021/11/06 07:37:40;;;;;;;8.55;3.17;;;;;;;8.43;65.19;99441.25;5044771;28;20047;-81
2021/11/06 07:40:22;;;;;;;4.32;2.60;;;;;;;9.14;65.08;99546.34;5031586;28;20033;-82
2021/11/06 07:42:56;;;;;;;7.78;2.70;;;;;;;8.20;64.95;99394.69;5029761;28;20060;-77
2021/11/06 07:45:23;;;;;;;4.70;2.95;;;;;;;9.27;65.15;99557.50;5032195;28;20124;-78
2021/11/06 07:47:50;;;;;;;3.90;2.90;;;;;;;9.32;65.15;99550.53;5040273;28;22147;-82
2021/11/06 07:50:19;;;;;;;4.97;2.70;;;;;;;9.01;64.95;99496.22;5046891;28;20047;-81
2021/11/06 07:52:44;;;;;;;6.97;2.55;;;;;;;9.36;64.75;99556.56;5060767;28;20040;-79
2021/11/06 07:55:11;;;;;;;5.18;2.75;;;;;;;9.22;64.87;99541.06;5037029;28;20044;-83
2021/11/06 07:57:37;;;;;;;6.63;3.28;;;;;;;8.84;64.48;99480.78;5044907;28;20158;-82
2021/11/06 08:00:11;;;;;;;9.38;2.97;;;;;;;9.13;64.71;99534.22;5043362;28;20051;-81
2021/11/06 08:02:45;;;;;;;5.32;2.65;;;;;;;8.99;64.51;99526.53;5051818;28;20064;-80
2021/11/06 08:05:50;;;;;;;11.00;2.90;;;;;;;8.57;64.58;99433.44;5023917;28;20042;-83
2021/11/06 08:08:17;;;;;;;8.75;3.10;;;;;;;9.23;64.82;99522.03;5056993;28;20262;-80
2021/11/06 08:10:42;;;;;;;5.22;2.50;;;;;;;9.28;64.44;99532.38;5042236;28;20044;-81
2021/11/06 08:13:12;;;;;;;5.28;3.00;;;;;;;9.36;64.52;99525.41;5040571;28;20467;-80
2021/11/06 08:15:44;;;;;;;6.60;2.80;;;;;;;9.42;64.67;99548.72;5046174;28;20045;-80
2021/11/06 08:18:17;;;;;;;5.38;2.40;;;;;;;9.43;64.73;99539.19;5048796;28;20049;-82
2021/11/06 08:20:46;;;;;;;4.55;2.90;;;;;;;8.38;63.94;99364.38;5013600;28;20076;-81
2021/11/06 08:23:12;;;;;;;4.63;2.55;;;;;;;8.95;64.20;99461.69;5057491;28;20084;-80
2021/11/06 08:28:32;;;;;;;3.58;2.60;;;;;;;8.87;64.21;99439.25;5020067;28;20166;-82
2021/11/06 08:31:10;;;;;;;5.03;2.95;;;;;;;9.36;64.13;99535.78;5062665;28;20503;-84
2021/11/06 08:34:24;;;;;;;7.53;2.83;;;;;;;9.42;64.27;99514.97;5041470;28;20033;-80
2021/11/06 08:37:11;;;;;;;6.35;3.38;;;;;;;8.81;64.44;99404.72;5064249;28;20574;-80
2021/11/06 08:40:06;;;;;;;9.48;3.10;;;;;;;8.79;63.95;99422.91;5041070;28;20178;-80
2021/11/06 08:43:02;;;;;;;6.57;3.30;;;;;;;8.51;63.53;99384.19;5057690;28;20111;-83
2021/11/06 08:45:37;;;;;;;6.70;3.55;;;;;;;9.56;64.01;99545.13;5053520;28;20041;-83
2021/11/06 08:48:20;;;;;;;7.38;3.08;;;;;;;9.23;63.59;99523.78;5054914;28;20569;-86
2021/11/06 08:58:06;;;;;;;5.20;2.95;;;;;;;8.25;64.37;99374.81;5018682;28;20041;-84
2021/11/06 09:01:08;;;;;;;5.95;3.10;;;;;;;8.58;64.26;99405.75;5071758;28;20045;-80
2021/11/06 09:03:41;;;;;;;6.05;3.65;;;;;;;8.27;64.31;99356.66;5039478;28;20044;-82
2021/11/06 09:06:10;;;;;;;5.28;2.97;;;;;;;9.16;64.38;99491.78;5057448;28;20645;-84
2021/11/06 09:08:44;;;;;;;4.15;2.90;;;;;;;8.81;64.09;99444.50;5048151;28;20036;-80
2021/11/06 09:11:26;;;;;;;10.98;3.40;;;;;;;9.34;64.47;99506.38;5059916;28;20045;-80
2021/11/06 09:13:55;;;;;;;10.48;3.17;;;;;;;9.32;64.00;99519.38;5056478;28;20051;-81
2021/11/06 09:16:31;;;;;;;6.50;3.22;;;;;;;8.70;63.74;99407.38;5047671;28;20079;-83
2021/11/06 09:19:13;;;;;;;5.18;3.28;;;;;;;8.53;64.00;99398.00;5027887;28;20041;-81
2021/11/06 09:21:51;;;;;;;;;;;;;;;9.20;64.31;99503.88;5073595;28;20438;-82
2021/11/06 09:24:18;;;;;;;4.68;3.20;;;;;;;9.13;64.33;99492.69;5055886;28;19917;-82
2021/11/06 09:26:45;;;;;;;4.95;3.20;;;;;;;8.59;64.17;99402.28;5056069;28;20516;-81
2021/11/06 09:29:13;;;;;;;5.28;2.55;;;;;;;8.86;64.24;99429.75;5075290;28;20053;-80
2021/11/06 09:32:11;;;;;;;7.72;2.95;;;;;;;9.36;64.57;99490.78;5068020;28;20053;-79
2021/11/06 09:35:04;;;;;;;3.08;2.58;;;;;;;9.56;63.93;99480.19;5050356;28;20069;-84
2021/11/06 09:37:42;;;;;;;4.53;2.30;;;;;;;9.19;64.16;99394.00;5006292;28;20065;-82
2021/11/06 09:40:30;;;;;;;3.90;2.25;;;;;;;8.63;63.54;99287.25;5007054;28;20045;-80
2021/11/06 09:43:31;;;;;;;6.30;3.15;;;;;;;9.20;63.67;99314.38;5015855;28;20041;-80
2021/11/06 09:47:44;;;;;;;3.20;2.40;;;;;;;11.24;62.49;99468.47;4988775;28;20137;-80
2021/11/06 09:50:32;;;;;;;5.35;2.60;;;;;;;10.65;61.75;99393.94;4920811;28;20660;-81
2021/11/06 09:53:01;;;;;;;3.67;2.25;;;;;;;10.38;61.58;99337.09;4944723;28;20059;-80
2021/11/06 09:55:33;;;;;;;;;;;;;;;10.91;61.48;99437.75;4938967;28;20226;-81
2021/11/06 09:57:59;;;;;;;3.47;2.15;;;;;;;10.90;60.50;99433.44;4960207;28;20461;-79
2021/11/06 10:00:53;;;;;;;4.43;2.63;;;;;;;10.83;61.23;99450.91;4977311;28;20180;-82
2021/11/06 10:03:37;;;;;;;3.50;2.38;;;;;;;10.28;60.61;99351.09;4983340;28;20078;-82
2021/11/06 10:06:28;;;;;;;3.15;2.15;;;;;;;10.76;60.72;99449.28;4974840;28;20054;-81
2021/11/06 10:10:17;;;;;;;6.43;2.65;;;;;;;10.56;60.95;99452.19;4946355;28;20904;-80
2021/11/06 10:13:05;;;;;;;6.38;2.80;;;;;;;10.47;60.94;99436.69;4945292;28;21045;-81
2021/11/06 10:15:52;;;;;;;6.38;2.30;;;;;;;9.51;60.69;99272.47;4958445;28;20585;-83
2021/11/06 10:18:34;;;;;;;7.03;2.42;;;;;;;10.02;60.65;99344.53;4985514;28;20199;-80
2021/11/06 10:21:07;;;;;;;6.78;2.45;;;;;;;10.46;60.95;99407.22;4991984;28;20046;-79
2021/11/06 10:25:05;;;;;;;;;;;;;;;;;;;;;
2021/11/06 10:28:14;;;;;;;3.75;1.98;;;;;;;9.47;60.60;99263.88;4970478;28;20048;-81
2021/11/06 10:31:02;;;;;;;4.10;2.10;;;;;;;10.10;60.32;99362.63;4912166;29;20135;-81
2021/11/06 10:38:05;;;;;;;3.92;2.05;;;;;;;10.43;60.54;99443.69;5002020;28;20065;-81
2021/11/06 10:41:07;;;;;;;6.10;2.67;;;;;;;10.52;60.71;99447.91;5022352;28;20095;-81
2021/11/06 10:43:48;;;;;;;3.43;2.23;;;;;;;10.09;60.56;99346.19;5066720;28;20029;-80
2021/11/06 10:46:42;;;;;;;3.92;1.80;;;;;;;9.59;60.02;99278.44;5053272;28;20041;-81
2021/11/06 10:50:07;;;;;;;6.43;2.13;;;;;;;10.64;60.35;99420.84;5046259;28;20056;-79
2021/11/06 10:53:17;;;;;;;10.98;2.47;;;;;;;9.78;59.94;99278.19;5019271;28;20518;-79
2021/11/06 10:55:53;;;;;;;3.67;2.47;;;;;;;10.43;59.97;99372.59;5018154;28;20447;-81
2021/11/06 10:58:39;;;;;;;4.93;2.40;;;;;;;10.55;59.66;99404.47;5046344;28;20037;-81
2021/11/06 11:01:32;;;;;;;7.93;1.95;;;;;;;10.10;59.69;99336.63;5027040;28;20098;-80
2021/11/06 11:04:18;;;;;;;4.47;1.80;;;;;;;10.68;59.36;99428.56;5030045;28;20044;-80
2021/11/06 11:06:57;;;;;;;5.85;2.30;;;;;;;10.64;59.67;99436.47;5030127;28;20587;-81
2021/11/06 11:10:06;;;;;;;2.83;1.70;;;;;;;9.73;59.30;99291.22;5027031;28;20098;-78
2021/11/06 11:12:35;;;;;;;4.85;1.80;;;;;;;9.74;59.54;99308.53;5016133;28;20083;-79
2021/11/06 11:15:08;;;;;;;9.32;1.80;;;;;;;9.50;59.51;99288.94;5041748;28;20029;-78
2021/11/06 11:17:55;;;;;;;3.28;1.85;;;;;;;9.99;58.72;99367.97;5027143;28;20060;-80
2021/11/06 11:20:53;;;;;;;3.47;1.70;;;;;;;10.36;59.30;99434.22;5003669;28;20045;-79
2021/11/06 11:23:41;;;;;;;4.53;1.80;;;;;;;10.12;59.14;99407.66;5029521;28;20056;-80
2021/11/06 11:26:22;;;;;;;3.97;1.67;;;;;;;9.88;59.03;99355.09;5045234;28;20060;-82
2021/11/06 11:29:01;;;;;;;6.93;2.10;;;;;;;9.39;59.22;99285.59;5018098;28;20053;-81
2021/11/06 11:31:28;;;;;;;4.35;2.20;;;;;;;10.18;59.16;99437.91;5001075;28;20045;-79
2021/11/06 11:33:54;;;;;;;8.27;1.80;;;;;;;9.91;58.75;99396.66;5021146;28;20042;-80
2021/11/06 11:36:27;;;;;;;4.90;2.03;;;;;;;9.56;59.38;99355.50;5028757;28;20045;-80
2021/11/06 11:40:03;;;;;;;6.05;1.83;;;;;;;9.33;58.79;99318.56;5021175;28;20048;-80
2021/11/06 11:43:13;;;;;;;4.43;1.88;;;;;;;9.86;59.14;99431.38;4999623;28;20052;-81
2021/11/06 11:46:46;;;;;;;;;;;;;;;9.84;59.36;99425.34;5010993;28;20060;-80
2021/11/06 11:49:18;;;;;;;3.78;1.73;;;;;;;9.50;59.62;99385.88;5035982;28;19988;-81
2021/11/06 11:52:02;;;;;;;2.83;1.80;;;;;;;8.74;59.64;99264.66;5024524;28;20053;-80
2021/11/06 11:55:27;;;;;;;2.40;1.60;;;;;;;9.76;59.68;99426.28;4997090;28;20054;-77
2021/11/06 11:58:29;;;;;;;4.05;1.70;;;;;;;9.73;59.41;99431.50;4991755;28;20073;-81
2021/11/06 12:01:12;;;;;;;2.15;1.70;;;;;;;9.72;59.45;99440.19;4978577;28;20045;-78
2021/11/06 12:04:37;;;;;;;5.15;1.92;;;;;;;8.65;59.66;99272.56;4996464;28;20053;-77
2021/11/06 12:07:32;;;;;;;4.55;1.80;;;;;;;9.51;60.22;99404.94;4902309;29;20046;-77
2021/11/06 12:10:39;;;;;;;2.50;1.65;;;;;;;9.54;59.97;99433.47;4928087;29;20308;-79
2021/11/06 12:13:30;;;;;;;5.15;1.77;;;;;;;9.55;60.19;99448.19;4917250;29;20043;-79
2021/11/06 12:16:11;;;;;;;6.65;1.90;;;;;;;9.19;60.15;99374.94;4932871;28;20076;-78
2021/11/06 12:18:37;;;;;;;5.60;1.58;;;;;;;9.68;60.08;99450.63;5013927;28;20103;-80
2021/11/06 12:21:16;;;;;;;2.25;1.20;;;;;;;9.65;60.02;99447.19;5025072;28;20045;-82
2021/11/06 12:23:51;;;;;;;6.15;1.60;;;;;;;9.27;60.37;99391.31;5025495;28;20480;-79
2021/11/06 12:26:47;;;;;;;1.83;1.30;;;;;;;9.26;60.02;99402.56;5011025;28;20045;-79
2021/11/06 12:29:23;;;;;;;2.70;1.30;;;;;;;9.52;60.17;99457.72;4996221;28;20048;-79